createdAt,value
2022-11-27T00:04:51.618Z,98882.56
2022-11-27T00:14:55.674Z,98859.84
2022-11-27T00:24:58.358Z,98857.34
2022-11-27T00:35:00.859Z,98846.50
2022-11-27T00:45:03.568Z,98826.16
2022-11-27T00:55:06.477Z,98819.47
2022-11-27T01:05:09.502Z,98804.53
2022-11-27T01:15:12.188Z,98821.97
2022-11-27T01:25:14.772Z,98794.38
2022-11-27T01:35:17.383Z,98769.88
2022-11-27T01:45:21.645Z,98780.13
2022-11-27T01:55:31.087Z,98802.25
2022-11-27T02:05:34.066Z,98772.94
2022-11-27T02:16:18.237Z,98746.50
2022-11-27T02:26:55.253Z,98735.81
2022-11-27T02:37:19.576Z,98735.31
2022-11-27T02:47:23.405Z,98711.16
2022-11-27T02:57:27.365Z,98715.66
2022-11-27T03:07:45.868Z,98700.16
2022-11-27T03:18:19.149Z,98693.94
2022-11-27T03:28:23.254Z,98672.91
2022-11-27T03:38:25.738Z,98665.38
2022-11-27T03:48:46.503Z,98671.12
2022-11-27T03:59:14.119Z,98657.56
2022-11-27T04:09:16.702Z,98661.59
2022-11-27T04:19:19.134Z,98653.66
2022-11-27T04:29:22.378Z,98654.13
2022-11-27T04:39:24.897Z,98681.44
2022-11-27T04:49:27.522Z,98662.94
2022-11-27T04:59:30.523Z,98677.03
2022-11-27T05:09:33.010Z,98660.84
2022-11-27T05:19:35.433Z,98667.37
2022-11-27T05:29:40.311Z,98670.03
2022-11-27T05:39:42.969Z,98644.75
2022-11-27T05:49:45.480Z,98642.22
2022-11-27T05:59:48.159Z,98644.06
2022-11-27T06:09:50.872Z,98642.50
2022-11-27T06:19:53.791Z,98625.62
2022-11-27T06:29:56.539Z,98607.19
2022-11-27T06:39:58.890Z,98593.31
2022-11-27T06:50:01.402Z,98618.38
2022-11-27T07:00:06.187Z,98624.62
2022-11-27T07:10:09.613Z,98613.13
2022-11-27T07:20:12.703Z,98602.47
2022-11-27T07:30:17.567Z,98605.97
2022-11-27T07:40:20.217Z,98608.69
2022-11-27T07:50:23.419Z,98606.37
2022-11-27T08:00:26.367Z,98603.59
2022-11-27T08:10:29.011Z,98586.22
2022-11-27T08:20:31.488Z,98577.75
2022-11-27T08:30:33.787Z,98591.47
2022-11-27T08:40:36.627Z,98594.78
2022-11-27T08:50:39.687Z,98580.31
2022-11-27T09:00:42.797Z,98569.66
2022-11-27T09:10:46.807Z,98573.47
2022-11-27T09:21:04.091Z,98572.31
2022-11-27T09:31:08.761Z,98556.09
2022-11-27T09:41:11.960Z,98543.28
2022-11-27T09:51:34.720Z,98554.56
2022-11-27T10:01:45.281Z,98548.47
2022-11-27T10:12:10.373Z,98521.28
2022-11-27T10:22:28.669Z,98498.72
2022-11-27T10:43:18.648Z,98483.16
2022-11-27T10:53:32.463Z,98458.19
2022-11-27T11:03:36.546Z,98457.66
2022-11-27T11:13:42.180Z,98444.03
2022-11-27T11:23:48.327Z,98419.38
2022-11-27T11:33:58.917Z,98398.19
2022-11-27T11:44:03.038Z,98391.88
2022-11-27T11:54:35.893Z,98370.44
2022-11-27T12:05:08.011Z,98343.66
2022-11-27T12:15:35.134Z,98329.78
2022-11-27T12:26:02.598Z,98315.03
2022-11-27T12:36:28.957Z,98310.94
2022-11-27T12:47:00.423Z,98290.69
2022-11-27T12:57:08.643Z,98255.63
2022-11-27T13:07:21.427Z,98238.63
2022-11-27T13:17:30.381Z,98237.25
2022-11-27T13:27:37.858Z,98222.50
2022-11-27T13:37:42.754Z,98198.06
2022-11-27T13:47:46.388Z,98169.78
2022-11-27T13:57:54.143Z,98158.91
2022-11-27T14:07:57.884Z,98139.41
2022-11-27T14:18:22.427Z,98119.16
2022-11-27T14:28:26.597Z,98110.16
2022-11-27T14:38:31.215Z,98102.22
2022-11-27T14:48:48.851Z,98089.75
2022-11-27T14:58:57.841Z,98077.94
2022-11-27T15:09:29.705Z,98076.88
2022-11-27T15:19:31.764Z,98077.44
2022-11-27T15:29:37.581Z,98063.09
2022-11-27T15:39:48.551Z,98060.94
2022-11-27T15:49:51.848Z,98045.38
2022-11-27T15:59:54.760Z,98022.75
2022-11-27T16:09:58.511Z,98028.19
2022-11-27T16:20:01.630Z,98011.56
2022-11-27T16:30:05.379Z,98013.69
2022-11-27T16:40:08.785Z,98005.03
2022-11-27T16:50:14.809Z,97994.78
2022-11-27T17:00:18.232Z,97984.50
2022-11-27T17:10:21.508Z,97963.06
2022-11-27T17:20:25.013Z,97938.94
2022-11-27T17:30:28.541Z,97908.50
2022-11-27T17:40:31.133Z,97886.22
2022-11-27T17:50:33.982Z,97867.81
2022-11-27T18:00:40.435Z,97855.91
2022-11-27T18:10:43.800Z,97837.16
2022-11-27T18:20:47.160Z,97820.41
2022-11-27T18:30:50.835Z,97818.91
2022-11-27T18:40:53.770Z,97816.69
2022-11-27T18:51:10.811Z,97782.44
2022-11-27T19:01:17.356Z,97807.59
2022-11-27T19:11:24.465Z,97789.31
2022-11-27T19:21:31.746Z,97771.47
2022-11-27T19:31:35.356Z,97776.00
2022-11-27T19:41:38.244Z,97763.69
2022-11-27T19:51:41.506Z,97767.28
2022-11-27T20:01:45.222Z,97760.66
2022-11-27T20:11:49.418Z,97736.87
2022-11-27T20:21:52.167Z,97714.47
2022-11-27T20:31:55.212Z,97707.97
2022-11-27T20:41:57.894Z,97692.34
2022-11-27T20:52:03.993Z,97676.84
2022-11-27T21:02:06.382Z,97691.03
2022-11-27T21:12:11.497Z,97691.41
2022-11-27T21:22:14.780Z,97687.34
2022-11-27T21:32:23.038Z,97671.97
2022-11-27T21:42:26.929Z,97654.37
2022-11-27T21:52:30.208Z,97642.81
2022-11-27T22:02:34.387Z,97628.63
2022-11-27T22:12:37.437Z,97613.25
2022-11-27T22:22:40.063Z,97619.22
2022-11-27T22:32:42.890Z,97611.62
2022-11-27T22:42:46.105Z,97610.03
2022-11-27T22:52:48.870Z,97602.78
2022-11-27T23:02:51.718Z,97596.50
2022-11-27T23:12:54.815Z,97593.81
2022-11-27T23:22:57.654Z,97594.38
2022-11-27T23:33:00.179Z,97592.31
2022-11-27T23:43:02.686Z,97578.19
2022-11-27T23:53:05.108Z,97581.25
